Time;durP1;ratioP1;P1;durP2;ratioP2;P2;SDS_P1;SDS_P2;PMS_P1;PMS_P2;Temp;Humidity;BMP_temperature;BMP_pressure;BME280_temperature;BME280_humidity;BME280_pressure;Samples;Min_cycle;Max_cycle;Signal;HPM_P1;HPM_P2
2022/06/03 00:00:09;;;;;;;6.10;5.57;;;8.10;99.90;;;;;;5071522;28;20535;-84
2022/06/03 00:03:23;;;;;;;6.85;6.20;;;8.10;99.90;;;;;;5071031;28;20398;-84
2022/06/03 00:06:11;;;;;;;6.80;6.10;;;8.00;99.90;;;;;;5071417;28;20430;-85
2022/06/03 00:08:51;;;;;;;6.47;5.97;;;7.80;99.90;;;;;;5074265;28;20370;-83
2022/06/03 00:11:50;;;;;;;7.17;6.30;;;7.90;99.90;;;;;;5074431;28;20986;-85
2022/06/03 00:14:36;;;;;;;6.93;6.22;;;8.30;99.90;;;;;;5070892;28;20393;-82
2022/06/03 00:17:38;;;;;;;7.15;6.30;;;8.00;99.90;;;;;;5070790;28;20378;-85
2022/06/03 00:20:10;;;;;;;7.15;6.45;;;;;;;;;;5069530;28;20382;-85
2022/06/03 00:22:39;;;;;;;7.97;6.77;;;8.30;99.90;;;;;;5068963;28;20382;-85
2022/06/03 00:25:23;;;;;;;7.38;6.70;;;8.10;99.90;;;;;;5071504;28;20386;-84
2022/06/03 00:28:08;;;;;;;7.10;6.50;;;;;;;;;;5072531;28;20378;-85
2022/06/03 00:30:40;;;;;;;6.63;5.95;;;;;;;;;;5071801;28;20791;-84
2022/06/03 00:33:06;;;;;;;7.25;6.55;;;;;;;;;;5071141;28;20398;-84
2022/06/03 00:35:41;;;;;;;8.15;7.35;;;;;;;;;;5070038;28;20402;-85
2022/06/03 00:38:26;;;;;;;6.70;6.00;;;;;;;;;;5071340;28;20381;-85
2022/06/03 00:41:03;;;;;;;6.50;5.90;;;;;;;;;;5071237;28;20382;-83
2022/06/03 00:43:47;;;;;;;6.00;5.50;;;;;;;;;;5071118;28;20374;-84
2022/06/03 00:46:25;;;;;;;6.90;6.30;;;7.70;99.90;;;;;;5071502;28;20412;-85
2022/06/03 00:49:39;;;;;;;6.65;6.05;;;7.70;99.90;;;;;;5070639;28;20382;-85
2022/06/03 00:52:31;;;;;;;7.18;6.47;;;7.50;99.90;;;;;;5069276;28;20410;-83
2022/06/03 00:55:37;;;;;;;6.93;6.27;;;7.50;99.90;;;;;;5071908;28;20748;-85
2022/06/03 00:58:40;;;;;;;6.60;6.03;;;7.40;99.90;;;;;;5069480;28;20378;-82
2022/06/03 01:01:23;;;;;;;6.18;5.57;;;7.40;99.90;;;;;;5072486;28;20474;-83
2022/06/03 01:03:55;;;;;;;6.53;5.93;;;7.30;99.90;;;;;;5075422;28;20397;-83
2022/06/03 01:06:23;;;;;;;6.80;6.20;;;7.30;99.90;;;;;;5072517;28;20784;-82
2022/06/03 01:08:49;;;;;;;6.70;6.10;;;7.30;99.90;;;;;;5071356;28;20386;-83
2022/06/03 01:11:38;;;;;;;6.63;6.03;;;7.20;99.90;;;;;;5070409;28;20386;-85
2022/06/03 01:14:22;;;;;;;7.13;6.43;;;7.20;99.90;;;;;;5059359;28;20887;-82
2022/06/03 01:16:56;;;;;;;7.20;6.50;;;7.20;99.90;;;;;;5068634;28;20496;-84
2022/06/03 01:19:39;;;;;;;6.50;5.90;;;7.10;99.90;;;;;;5069668;28;20381;-82
2022/06/03 01:22:24;;;;;;;6.57;6.07;;;7.10;99.90;;;;;;5068702;28;20782;-85
2022/06/03 01:25:13;;;;;;;7.72;7.03;;;7.10;99.90;;;;;;5068482;28;20451;-85
2022/06/03 01:28:09;;;;;;;7.15;6.55;;;7.10;99.90;;;;;;5069059;28;20378;-85
2022/06/03 01:31:25;;;;;;;6.75;6.13;;;7.00;99.90;;;;;;5071288;28;20390;-84
2022/06/03 01:34:09;;;;;;;7.13;6.53;;;7.00;99.90;;;;;;5068677;28;20910;-82
2022/06/03 01:36:34;;;;;;;6.88;6.22;;;7.10;99.90;;;;;;5068079;28;20386;-83
2022/06/03 01:39:12;;;;;;;7.33;6.60;;;7.00;99.90;;;;;;5067947;28;20381;-83
2022/06/03 01:42:02;;;;;;;7.53;6.85;;;7.10;99.90;;;;;;5068299;28;20552;-84
2022/06/03 01:44:37;;;;;;;6.82;6.22;;;7.10;99.90;;;;;;5067733;28;20460;-84
2022/06/03 01:47:22;;;;;;;7.10;6.50;;;7.10;99.90;;;;;;5075103;28;20378;-82
2022/06/03 01:50:28;;;;;;;7.32;6.63;;;7.00;99.90;;;;;;5072311;28;20382;-84
2022/06/03 01:53:09;;;;;;;7.00;6.30;;;6.90;99.90;;;;;;5071736;28;20424;-84
2022/06/03 01:55:53;;;;;;;7.53;6.75;;;6.80;99.90;;;;;;5070404;28;20461;-85
2022/06/03 01:58:38;;;;;;;7.47;6.67;;;6.80;99.90;;;;;;5068321;28;20452;-83
2022/06/03 02:01:22;;;;;;;6.75;6.20;;;6.70;99.90;;;;;;5067631;28;20389;-84
2022/06/03 02:04:06;;;;;;;6.43;5.90;;;6.70;99.90;;;;;;5067628;28;20386;-83
2022/06/03 02:07:07;;;;;;;6.90;6.20;;;6.70;99.90;;;;;;5067625;28;20393;-84
2022/06/03 02:10:11;;;;;;;7.10;6.50;;;6.70;99.90;;;;;;5067290;28;20749;-85
2022/06/03 02:13:31;;;;;;;6.88;6.20;;;6.70;99.90;;;;;;5066901;28;20930;-84
2022/06/03 02:16:15;;;;;;;6.85;6.28;;;6.70;99.90;;;;;;5066379;28;20382;-84
2022/06/03 02:19:18;;;;;;;6.78;6.18;;;6.60;99.90;;;;;;5069042;28;20362;-86
2022/06/03 02:21:46;;;;;;;7.20;6.50;;;6.60;99.90;;;;;;5067375;28;20864;-84
2022/06/03 02:24:37;;;;;;;6.82;6.22;;;6.50;99.90;;;;;;5067413;28;20459;-86
2022/06/03 02:27:47;;;;;;;6.72;6.13;;;6.50;99.90;;;;;;5066974;28;20449;-83
2022/06/03 02:30:31;;;;;;;7.07;6.38;;;6.50;99.90;;;;;;5066813;28;20398;-87
2022/06/03 02:33:11;;;;;;;7.00;6.30;;;6.40;99.90;;;;;;5072773;28;20456;-84
2022/06/03 02:36:11;;;;;;;6.85;6.20;;;6.40;99.90;;;;;;5071353;28;20884;-84
2022/06/03 02:39:10;;;;;;;7.07;6.45;;;6.40;99.90;;;;;;5072976;28;20435;-83
2022/06/03 02:42:11;;;;;;;7.68;6.97;;;6.30;99.90;;;;;;5070320;28;20394;-85
2022/06/03 02:44:45;;;;;;;8.32;7.60;;;6.30;99.90;;;;;;5071231;28;20740;-83
2022/06/03 02:47:49;;;;;;;7.70;7.10;;;6.30;99.90;;;;;;5071121;28;20389;-84
2022/06/03 02:50:24;;;;;;;7.68;6.80;;;6.40;99.90;;;;;;5071044;28;20447;-85
2022/06/03 02:53:11;;;;;;;8.03;7.23;;;6.40;99.90;;;;;;5070855;28;20406;-87
2022/06/03 02:55:49;;;;;;;8.45;7.70;;;6.30;99.90;;;;;;5070888;28;20392;-84
2022/06/03 02:58:20;;;;;;;8.38;7.57;;;6.30;99.90;;;;;;5070447;28;20439;-84
2022/06/03 03:01:21;;;;;;;9.65;8.65;;;6.30;99.90;;;;;;5070112;28;20387;-87
2022/06/03 03:04:12;;;;;;;8.98;8.18;;;6.30;99.90;;;;;;5070512;28;20402;-84
2022/06/03 03:07:15;;;;;;;7.90;7.20;;;6.30;99.90;;;;;;5072022;28;20902;-84
2022/06/03 03:10:33;;;;;;;7.60;6.90;;;6.40;99.90;;;;;;5070453;28;20476;-83
2022/06/03 03:13:47;;;;;;;8.02;7.32;;;6.40;99.90;;;;;;5070141;28;20455;-86
2022/06/03 03:16:36;;;;;;;7.60;7.00;;;6.40;99.90;;;;;;5065302;28;20917;-85
2022/06/03 03:19:36;;;;;;;8.00;7.20;;;6.30;99.90;;;;;;5072307;28;20367;-86
2022/06/03 03:22:26;;;;;;;9.82;7.63;;;6.30;99.90;;;;;;5071294;28;21158;-85
2022/06/03 03:25:27;;;;;;;8.52;7.57;;;6.40;99.90;;;;;;5070302;28;20809;-86
2022/06/03 03:28:15;;;;;;;8.10;7.30;;;6.40;99.90;;;;;;5064815;28;20500;-84
2022/06/03 03:31:05;;;;;;;7.43;6.72;;;6.50;99.90;;;;;;5069335;28;20378;-85
2022/06/03 03:34:01;;;;;;;7.85;6.90;;;6.60;99.90;;;;;;5069784;28;20394;-86
2022/06/03 03:36:44;;;;;;;6.80;6.18;;;6.60;99.90;;;;;;5070008;28;20400;-84
2022/06/03 03:39:28;;;;;;;7.07;6.40;;;6.60;99.90;;;;;;5071073;28;20382;-84
2022/06/03 03:42:16;;;;;;;7.60;6.90;;;6.50;99.90;;;;;;5068724;28;20478;-84
2022/06/03 03:45:11;;;;;;;6.63;6.03;;;6.60;99.90;;;;;;5070807;28;20385;-86
2022/06/03 03:47:52;;;;;;;7.38;6.57;;;6.60;99.90;;;;;;5071061;28;20447;-84
2022/06/03 03:50:26;;;;;;;8.95;6.85;;;6.60;99.90;;;;;;5069542;28;20891;-85
2022/06/03 03:53:29;;;;;;;7.88;6.95;;;6.70;99.90;;;;;;5071228;28;20401;-87
2022/06/03 03:56:32;;;;;;;7.03;6.35;;;6.70;99.90;;;;;;5069977;28;20388;-88
2022/06/03 03:59:12;;;;;;;6.78;6.18;;;6.80;99.90;;;;;;5072367;28;20370;-85
2022/06/03 04:01:56;;;;;;;7.15;6.45;;;6.90;99.90;;;;;;5069909;28;20402;-86
2022/06/03 04:04:25;;;;;;;6.22;5.70;;;7.10;99.90;;;;;;5069534;28;20444;-88
2022/06/03 04:07:09;;;;;;;6.13;5.63;;;7.20;99.90;;;;;;5071059;28;20405;-87
2022/06/03 04:09:56;;;;;;;5.88;5.38;;;7.10;99.90;;;;;;5070729;28;20394;-85
2022/06/03 04:12:27;;;;;;;5.38;4.90;;;7.20;99.90;;;;;;5068729;28;20968;-88
2022/06/03 04:15:25;;;;;;;10.97;6.20;;;7.20;99.90;;;;;;5069944;28;20473;-85
2022/06/03 04:17:57;;;;;;;7.35;5.70;;;7.30;99.90;;;;;;5070706;28;20366;-84
2022/06/03 04:21:11;;;;;;;5.72;5.22;;;7.40;99.90;;;;;;5069406;28;20382;-85
2022/06/03 04:23:55;;;;;;;5.65;5.07;;;7.50;99.90;;;;;;5068921;28;20383;-85
2022/06/03 04:26:58;;;;;;;5.03;4.63;;;8.80;99.90;;;;;;5070617;28;20457;-86
2022/06/03 04:29:37;;;;;;;9.23;5.10;;;7.90;99.90;;;;;;5069426;28;20975;-85
2022/06/03 04:32:27;;;;;;;19.27;6.57;;;8.00;99.90;;;;;;5068698;28;20410;-86
2022/06/03 04:35:18;;;;;;;11.77;5.13;;;8.10;99.90;;;;;;5069422;28;20899;-85
2022/06/03 04:38:12;;;;;;;7.32;4.43;;;8.40;99.90;;;;;;5068760;28;20906;-88
2022/06/03 04:40:59;;;;;;;5.50;4.10;;;8.80;99.90;;;;;;5070099;28;20423;-86
2022/06/03 04:43:56;;;;;;;7.50;4.10;;;9.10;99.90;;;;;;5070024;28;20489;-84
2022/06/03 04:46:43;;;;;;;10.05;3.88;;;9.70;99.90;;;;;;5070129;28;20477;-86
2022/06/03 04:49:29;;;;;;;3.92;3.47;;;10.30;99.90;;;;;;5070269;28;20378;-86
2022/06/03 04:52:26;;;;;;;5.57;3.50;;;10.70;99.90;;;;;;5067736;28;20395;-87
2022/06/03 04:55:35;;;;;;;3.97;3.58;;;11.10;99.90;;;;;;5071779;28;20386;-88
2022/06/03 04:58:29;;;;;;;3.10;2.83;;;11.50;99.90;;;;;;5072956;28;20390;-86
2022/06/03 05:01:19;;;;;;;3.28;2.80;;;12.10;99.90;;;;;;5075952;28;20457;-86
2022/06/03 05:04:03;;;;;;;3.70;2.50;;;12.70;99.90;;;;;;5078146;28;20397;-85
2022/06/03 05:06:59;;;;;;;24.85;4.68;;;13.40;99.90;;;;;;5076809;28;20402;-85
2022/06/03 05:10:05;;;;;;;13.60;3.80;;;13.80;99.90;;;;;;5078086;28;20472;-86
2022/06/03 05:12:39;;;;;;;3.58;2.55;;;14.00;99.90;;;;;;5077156;28;20470;-85
2022/06/03 05:15:47;;;;;;;2.60;2.40;;;14.00;99.90;;;;;;5075316;28;20370;-86
2022/06/03 05:18:21;;;;;;;3.67;2.50;;;14.30;99.90;;;;;;5073757;28;20405;-85
2022/06/03 05:21:02;;;;;;;17.70;3.92;;;14.60;99.90;;;;;;5075627;28;20705;-85
2022/06/03 05:24:06;;;;;;;10.80;2.90;;;15.20;99.90;;;;;;5075980;28;21041;-87
2022/06/03 05:26:35;;;;;;;7.15;3.05;;;15.60;99.90;;;;;;5071225;28;20392;-86
2022/06/03 05:29:11;;;;;;;35.25;5.60;;;16.00;99.90;;;;;;5056299;28;21002;-86
2022/06/03 05:32:30;;;;;;;20.38;4.38;;;16.10;99.90;;;;;;5063862;28;20808;-84
2022/06/03 05:35:14;;;;;;;5.90;3.22;;;16.30;99.90;;;;;;5075476;28;20385;-86
2022/06/03 05:38:01;;;;;;;51.42;6.70;;;16.30;99.90;;;;;;5075174;28;20378;-86
2022/06/03 05:40:33;;;;;;;6.07;3.15;;;16.20;99.90;;;;;;5068892;28;20520;-86
2022/06/03 05:43:20;;;;;;;3.38;3.08;;;16.20;99.90;;;;;;5087511;28;20377;-85
2022/06/03 05:46:07;;;;;;;3.77;2.80;;;16.30;99.90;;;;;;5074367;28;20400;-84
2022/06/03 05:49:16;;;;;;;4.55;3.05;;;16.40;99.90;;;;;;5073235;28;20390;-88
2022/06/03 05:51:51;;;;;;;20.58;4.03;;;16.30;99.90;;;;;;5071200;28;20370;-87
2022/06/03 05:54:33;;;;;;;7.47;3.70;;;16.40;99.90;;;;;;5084488;28;20396;-87
2022/06/03 05:57:33;;;;;;;3.83;3.23;;;16.50;99.90;;;;;;5093920;28;20383;-85
2022/06/03 06:00:43;;;;;;;7.88;3.72;;;16.50;99.90;;;;;;5049706;28;20996;-87
2022/06/03 06:03:21;;;;;;;3.50;3.00;;;16.60;99.90;;;;;;5049155;28;20383;-84
2022/06/03 06:06:11;;;;;;;6.50;3.57;;;16.70;99.90;;;;;;5054841;28;20956;-84
2022/06/03 06:08:55;;;;;;;4.72;3.20;;;16.70;99.90;;;;;;5055356;28;20885;-86
2022/06/03 06:11:40;;;;;;;6.55;3.20;;;16.70;99.90;;;;;;5053035;28;20502;-84
2022/06/03 06:14:28;;;;;;;6.68;2.88;;;16.80;99.90;;;;;;5053745;28;20411;-85
2022/06/03 06:17:01;;;;;;;5.28;3.15;;;17.00;99.90;;;;;;5054282;28;20388;-85
2022/06/03 06:19:39;;;;;;;5.05;3.30;;;17.20;99.90;;;;;;5054641;28;20396;-84
2022/06/03 06:22:05;;;;;;;7.15;3.30;;;17.70;99.90;;;;;;5052559;28;20375;-86
2022/06/03 06:24:45;;;;;;;3.58;3.00;;;18.20;99.90;;;;;;5054238;28;20386;-84
2022/06/03 06:27:32;;;;;;;3.57;2.90;;;18.90;99.90;;;;;;5052369;28;20466;-85
2022/06/03 06:30:00;;;;;;;4.15;2.72;;;19.10;99.90;;;;;;5051294;28;20423;-85
2022/06/03 06:32:47;;;;;;;3.92;3.10;;;19.50;99.90;;;;;;5052799;28;20411;-87
2022/06/03 06:36:10;;;;;;;3.38;2.72;;;19.70;99.90;;;;;;5062825;28;20382;-84
2022/06/03 06:38:51;;;;;;;6.03;2.90;;;20.20;99.90;;;;;;5071140;28;20895;-85
2022/06/03 06:41:50;;;;;;;4.70;2.90;;;20.60;99.90;;;;;;5054489;28;20439;-84
2022/06/03 06:44:54;;;;;;;4.78;2.63;;;20.60;99.90;;;;;;5072515;28;20454;-82
2022/06/03 06:47:28;;;;;;;10.30;3.20;;;21.00;99.90;;;;;;5073420;28;20386;-84
2022/06/03 06:50:32;;;;;;;3.20;2.50;;;21.20;99.90;;;;;;5059959;28;20395;-85
2022/06/03 06:53:08;;;;;;;4.82;3.00;;;21.50;99.90;;;;;;5049207;28;20431;-86
2022/06/03 06:55:51;;;;;;;3.33;2.42;;;21.80;99.90;;;;;;5053346;28;20380;-86
2022/06/03 06:58:43;;;;;;;4.25;2.80;;;22.20;99.90;;;;;;5067949;28;20460;-85
2022/06/03 07:01:12;;;;;;;3.95;2.78;;;22.60;99.90;;;;;;5061960;28;20386;-85
2022/06/03 07:04:16;;;;;;;4.93;2.93;;;22.30;96.10;;;;;;5059259;28;20386;-86
2022/06/03 07:06:55;;;;;;;4.40;2.80;;;22.20;96.90;;;;;;5070474;28;20746;-85
2022/06/03 07:09:30;;;;;;;4.10;2.80;;;22.30;97.30;;;;;;5061370;28;20431;-84
2022/06/03 07:12:10;;;;;;;5.18;2.90;;;22.50;95.60;;;;;;5060900;28;20406;-87
2022/06/03 07:14:57;;;;;;;7.38;2.78;;;22.60;94.10;;;;;;5070269;28;20406;-85
2022/06/03 07:20:36;;;;;;;18.73;4.63;;;22.60;95.40;;;;;;5065617;28;20393;-85
2022/06/03 07:23:13;;;;;;;8.95;3.13;;;22.60;94.20;;;;;;5062449;28;20377;-85
2022/06/03 07:25:46;;;;;;;5.53;2.63;;;22.60;93.90;;;;;;5062878;28;20488;-84
2022/06/03 07:28:15;;;;;;;21.17;3.72;;;22.70;94.90;;;;;;5062626;28;20443;-85
2022/06/03 07:30:52;;;;;;;5.22;2.40;;;22.90;94.00;;;;;;5060840;28;20362;-83
2022/06/03 07:33:43;;;;;;;3.10;1.80;;;23.00;93.70;;;;;;5060549;28;20408;-88
2022/06/03 07:36:35;;;;;;;3.50;1.90;;;23.10;91.90;;;;;;5059473;28;20395;-86
2022/06/03 07:39:32;;;;;;;11.38;2.58;;;23.00;92.30;;;;;;5075181;28;20522;-83
2022/06/03 07:42:13;;;;;;;2.88;1.70;;;22.90;91.40;;;;;;5058826;28;20394;-84
2022/06/03 07:45:04;;;;;;;2.13;1.67;;;22.80;91.20;;;;;;5060954;28;20403;-84
2022/06/03 07:47:32;;;;;;;8.18;2.03;;;22.80;91.00;;;;;;5060568;28;20404;-84
2022/06/03 07:50:05;;;;;;;2.60;1.50;;;22.80;90.00;;;;;;5061095;28;20468;-84
2022/06/03 07:52:50;;;;;;;3.22;1.70;;;22.80;90.70;;;;;;5060645;28;20753;-84
2022/06/03 07:55:25;;;;;;;2.57;1.90;;;22.60;90.10;;;;;;5045236;28;20403;-83
2022/06/03 07:57:55;;;;;;;4.28;1.83;;;22.50;90.70;;;;;;5057923;28;20392;-85
2022/06/03 08:00:23;;;;;;;3.20;1.73;;;22.50;90.00;;;;;;5059501;28;20477;-85
2022/06/03 08:03:15;;;;;;;4.82;2.10;;;22.50;88.70;;;;;;5063789;28;21401;-84
2022/06/03 08:05:44;;;;;;;2.78;1.75;;;22.60;88.50;;;;;;5060199;28;20757;-87
2022/06/03 08:11:01;;;;;;;5.03;1.70;;;23.10;86.60;;;;;;5059499;28;20398;-85
2022/06/03 08:13:45;;;;;;;3.42;1.60;;;23.20;86.30;;;;;;5059103;28;20402;-87
2022/06/03 08:16:17;;;;;;;2.60;1.67;;;23.20;90.00;;;;;;5058558;28;20399;-84
2022/06/03 08:18:44;;;;;;;4.22;2.17;;;23.30;87.60;;;;;;5059922;28;20374;-85
2022/06/03 08:21:15;;;;;;;3.58;2.15;;;23.30;85.00;;;;;;5059681;28;20374;-83
2022/06/03 08:23:42;;;;;;;43.13;5.35;;;23.40;85.50;;;;;;5058515;28;20383;-85
2022/06/03 08:26:12;;;;;;;5.20;2.03;;;23.20;88.40;;;;;;5058218;28;20386;-84
2022/06/03 08:28:43;;;;;;;3.25;1.90;;;23.20;88.90;;;;;;5059901;28;20408;-84
2022/06/03 08:31:09;;;;;;;3.63;2.00;;;23.30;90.00;;;;;;5059127;28;20407;-83
2022/06/03 08:33:46;;;;;;;3.70;1.90;;;23.40;86.80;;;;;;5059121;28;20397;-86
2022/06/03 08:36:17;;;;;;;2.53;1.85;;;23.50;88.70;;;;;;5059972;28;20386;-85
2022/06/03 08:38:51;;;;;;;5.03;2.10;;;23.60;87.60;;;;;;5059255;28;20387;-84
2022/06/03 08:41:34;;;;;;;3.30;2.00;;;23.70;86.40;;;;;;5058774;28;20461;-83
2022/06/03 08:44:35;;;;;;;3.30;2.13;;;23.80;83.50;;;;;;5059289;28;20453;-83
2022/06/03 08:47:14;;;;;;;7.68;2.17;;;23.90;83.20;;;;;;5059108;28;20469;-83
2022/06/03 08:49:55;;;;;;;3.13;1.80;;;23.80;85.30;;;;;;5060585;28;20394;-86
2022/06/03 08:52:26;;;;;;;5.72;2.00;;;23.90;88.40;;;;;;5059728;28;20378;-85
2022/06/03 08:54:57;;;;;;;6.40;2.13;;;24.00;84.50;;;;;;5060249;28;20378;-83
2022/06/03 08:57:40;;;;;;;11.50;2.97;;;24.00;86.50;;;;;;5058019;28;20869;-83
2022/06/03 09:00:10;;;;;;;3.07;1.67;;;24.00;86.00;;;;;;5060158;28;20397;-82
2022/06/03 09:02:59;;;;;;;4.68;1.98;;;24.20;84.60;;;;;;5060504;28;20432;-83
2022/06/03 09:05:52;;;;;;;3.70;2.03;;;24.40;82.30;;;;;;5058780;28;20370;-83
2022/06/03 09:08:36;;;;;;;6.75;2.08;;;24.20;80.00;;;;;;5058159;28;20388;-82
2022/06/03 09:11:59;;;;;;;12.30;3.13;;;24.00;85.20;;;;;;5059865;28;20467;-85
2022/06/03 09:14:27;;;;;;;9.23;2.37;;;24.00;81.40;;;;;;5037260;28;20449;-84
2022/06/03 09:16:58;;;;;;;2.90;1.80;;;24.10;83.10;;;;;;5056769;28;20461;-85
2022/06/03 09:19:28;;;;;;;2.28;1.50;;;24.00;80.40;;;;;;5052615;28;20392;-86
2022/06/03 09:21:57;;;;;;;2.80;1.70;;;23.80;82.60;;;;;;5057053;28;20380;-83
2022/06/03 09:24:27;;;;;;;2.58;1.77;;;23.90;84.00;;;;;;5059655;28;20401;-85
2022/06/03 09:26:56;;;;;;;3.72;1.90;;;23.90;81.10;;;;;;5060039;28;20371;-82
2022/06/03 09:29:22;;;;;;;3.25;1.90;;;23.90;82.30;;;;;;5059498;28;20388;-85
2022/06/03 09:31:52;;;;;;;37.30;4.55;;;23.90;82.80;;;;;;5058916;28;20433;-85
2022/06/03 09:34:22;;;;;;;4.67;2.07;;;23.90;80.90;;;;;;5058456;28;20918;-84
2022/06/03 09:36:49;;;;;;;4.57;1.58;;;24.00;82.70;;;;;;5057209;28;20836;-84
2022/06/03 09:39:17;;;;;;;8.30;2.25;;;24.40;80.30;;;;;;5055999;28;20719;-84
2022/06/03 09:41:49;;;;;;;8.18;2.17;;;24.50;81.90;;;;;;5056951;28;20378;-85
2022/06/03 09:44:19;;;;;;;6.03;2.00;;;24.40;78.90;;;;;;5059775;28;20401;-86
2022/06/03 09:46:45;;;;;;;3.85;2.00;;;24.30;82.20;;;;;;5059196;28;20746;-85
2022/06/03 09:49:19;;;;;;;2.90;2.00;;;24.40;83.00;;;;;;5060343;28;20391;-83
2022/06/03 09:52:02;;;;;;;3.22;2.10;;;24.40;79.40;;;;;;5058071;28;20380;-85
2022/06/03 09:54:30;;;;;;;16.20;3.17;;;24.20;75.40;;;;;;5067197;28;20390;-84
2022/06/03 09:57:04;;;;;;;2.45;1.88;;;23.90;77.60;;;;;;5070462;28;20386;-85
2022/06/03 09:59:34;;;;;;;3.47;2.00;;;23.80;76.00;;;;;;5071242;28;20425;-85
2022/06/03 10:02:00;;;;;;;55.63;6.70;;;23.60;80.00;;;;;;5071053;28;20477;-82
2022/06/03 10:04:26;;;;;;;4.27;2.20;;;23.60;78.70;;;;;;5072833;28;20799;-86
2022/06/03 10:06:53;;;;;;;3.58;2.10;;;23.70;78.30;;;;;;5074102;28;20496;-84
2022/06/03 10:17:58;;;;;;;29.75;5.18;;;23.20;91.90;;;;;;5069653;28;20866;-85
2022/06/03 10:20:25;;;;;;;3.33;2.23;;;23.20;91.30;;;;;;5069631;28;20393;-85
2022/06/03 10:22:51;;;;;;;6.22;2.53;;;23.20;92.60;;;;;;5068774;28;20904;-85
2022/06/03 10:25:18;;;;;;;4.13;2.17;;;23.40;92.00;;;;;;5069154;28;20416;-84
2022/06/03 10:27:45;;;;;;;3.20;2.40;;;23.50;91.40;;;;;;5068684;28;20423;-83
2022/06/03 10:30:13;;;;;;;2.92;2.03;;;23.10;90.60;;;;;;5068856;28;20472;-82
2022/06/03 10:32:39;;;;;;;2.50;2.10;;;22.90;92.20;;;;;;5065413;28;20965;-84
2022/06/03 10:35:13;;;;;;;15.48;2.78;;;22.90;93.30;;;;;;5058346;28;20384;-84
2022/06/03 10:37:53;;;;;;;3.03;1.52;;;23.00;93.00;;;;;;5058458;28;20382;-83
2022/06/03 10:40:21;;;;;;;4.38;1.80;;;23.30;91.50;;;;;;5058008;28;20764;-84
2022/06/03 10:42:48;;;;;;;4.40;1.80;;;23.30;91.60;;;;;;5057651;28;20406;-85
2022/06/03 10:45:14;;;;;;;4.18;1.73;;;23.60;91.70;;;;;;5057541;28;20437;-83
2022/06/03 10:47:43;;;;;;;1.92;1.67;;;24.00;91.20;;;;;;5046827;28;20400;-81
2022/06/03 10:50:12;;;;;;;2.90;1.98;;;24.40;88.80;;;;;;5049648;28;20407;-82
2022/06/03 11:01:18;;;;;;;7.80;2.08;;;23.50;90.20;;;;;;5054760;28;21014;-85
2022/06/03 11:03:50;;;;;;;8.50;2.00;;;23.60;90.80;;;;;;5053922;28;20490;-86
2022/06/03 11:06:18;;;;;;;3.88;2.05;;;23.70;90.30;;;;;;5052644;28;20411;-83
2022/06/03 11:08:58;;;;;;;3.00;1.83;;;23.70;90.40;;;;;;5050950;28;20388;-85
2022/06/03 11:11:44;;;;;;;4.45;1.75;;;23.70;90.00;;;;;;5050451;28;20387;-85
2022/06/03 11:14:30;;;;;;;8.65;2.13;;;23.80;88.30;;;;;;5050919;28;20446;-86
2022/06/03 11:17:15;;;;;;;2.45;1.60;;;23.90;89.60;;;;;;5051737;28;20399;-85
2022/06/03 11:19:47;;;;;;;3.75;1.50;;;24.10;86.40;;;;;;5052049;28;20390;-82
2022/06/03 11:22:33;;;;;;;2.17;1.80;;;24.20;88.60;;;;;;5051171;28;20438;-83
2022/06/03 11:25:03;;;;;;;3.10;1.90;;;24.40;88.10;;;;;;5053092;28;20364;-87
2022/06/03 11:27:42;;;;;;;2.88;1.58;;;24.50;87.20;;;;;;5052466;28;20404;-85
2022/06/03 11:30:29;;;;;;;1.85;1.40;;;;;;;;;;5056576;28;20396;-83
2022/06/03 11:33:01;;;;;;;2.38;1.40;;;24.30;74.60;;;;;;5053704;28;20397;-84
2022/06/03 11:35:31;;;;;;;7.05;2.40;;;24.10;74.80;;;;;;5057926;28;21050;-84
2022/06/03 11:38:00;;;;;;;8.80;2.42;;;24.10;77.20;;;;;;5057720;28;20396;-84
2022/06/03 11:40:34;;;;;;;3.10;1.85;;;24.30;76.40;;;;;;5064198;28;20389;-86
2022/06/03 11:43:04;;;;;;;3.50;2.00;;;24.30;75.30;;;;;;5061749;28;20882;-83
2022/06/03 11:45:37;;;;;;;2.03;1.60;;;24.20;75.70;;;;;;5058636;28;20378;-87
2022/06/03 11:48:08;;;;;;;2.20;1.50;;;;;;;;;;5064356;28;20396;-86
2022/06/03 11:50:35;;;;;;;3.22;1.70;;;24.10;73.90;;;;;;5068111;28;20692;-84
2022/06/03 11:53:01;;;;;;;2.55;1.63;;;24.00;77.00;;;;;;5063582;28;20868;-85
2022/06/03 11:55:30;;;;;;;21.98;4.65;;;24.20;79.00;;;;;;5085964;28;20460;-84
2022/06/03 11:58:16;;;;;;;2.83;1.90;;;24.40;77.40;;;;;;5072931;28;20895;-86
2022/06/03 12:01:05;;;;;;;2.33;1.95;;;24.60;78.10;;;;;;5085161;28;20400;-84
2022/06/03 12:03:55;;;;;;;2.22;1.60;;;25.00;71.70;;;;;;5072268;28;20444;-82
2022/06/03 12:06:42;;;;;;;6.13;2.40;;;;;;;;;;5077623;28;20406;-85
2022/06/03 12:09:52;;;;;;;3.00;1.80;;;24.40;76.00;;;;;;5066941;28;20386;-85
2022/06/03 12:15:33;;;;;;;2.47;1.80;;;24.40;75.20;;;;;;5075580;28;20417;-83
2022/06/03 12:18:16;;;;;;;1.90;1.60;;;24.00;75.10;;;;;;5063059;28;20754;-84
2022/06/03 12:20:48;;;;;;;2.65;1.67;;;24.10;75.00;;;;;;5062149;28;20374;-86
2022/06/03 12:23:14;;;;;;;1.80;1.40;;;24.00;74.90;;;;;;5061727;28;20486;-84
2022/06/03 12:25:54;;;;;;;5.10;1.80;;;24.10;75.50;;;;;;5058357;28;20468;-87
2022/06/03 12:28:35;;;;;;;2.97;1.70;;;24.40;76.40;;;;;;5062275;28;20413;-86
2022/06/03 12:31:19;;;;;;;3.80;1.90;;;24.60;75.30;;;;;;5063364;28;20426;-84
2022/06/03 12:34:11;;;;;;;6.72;1.60;;;24.80;75.30;;;;;;5062776;28;20391;-83
2022/06/03 12:36:50;;;;;;;2.70;1.30;;;25.10;72.10;;;;;;5059709;28;20793;-84
2022/06/03 12:39:54;;;;;;;1.50;1.40;;;25.10;71.10;;;;;;5060362;28;20437;-86
2022/06/03 12:42:29;;;;;;;3.40;1.67;;;24.60;67.80;;;;;;5058814;28;20498;-86
2022/06/03 12:44:57;;;;;;;3.42;1.33;;;24.50;70.30;;;;;;5058917;28;20433;-87
2022/06/03 12:47:32;;;;;;;2.20;1.50;;;24.50;73.70;;;;;;5057984;28;20393;-88
2022/06/03 12:50:33;;;;;;;7.47;1.85;;;24.60;74.30;;;;;;5059458;28;20389;-83
2022/06/03 12:53:01;;;;;;;3.30;1.60;;;;;;;;;;5061091;28;20372;-84
2022/06/03 12:55:32;;;;;;;3.05;1.63;;;25.00;69.60;;;;;;5058408;28;20368;-83
2022/06/03 12:58:28;;;;;;;1.63;1.33;;;24.90;72.70;;;;;;5062222;28;20397;-85
2022/06/03 13:00:58;;;;;;;14.27;2.42;;;25.20;72.10;;;;;;5058518;28;20370;-83
2022/06/03 13:03:24;;;;;;;2.28;1.30;;;25.20;70.70;;;;;;5057650;28;20467;-85
2022/06/03 13:05:55;;;;;;;1.60;1.30;;;25.10;69.10;;;;;;5060724;28;20394;-84
2022/06/03 13:11:25;;;;;;;3.10;1.52;;;25.20;70.50;;;;;;5060785;28;20876;-84
2022/06/03 13:13:54;;;;;;;2.63;1.50;;;25.20;73.00;;;;;;5057030;28;20392;-86
2022/06/03 13:16:31;;;;;;;2.65;1.50;;;25.30;72.10;;;;;;5059982;28;20461;-84
2022/06/03 13:19:19;;;;;;;8.05;1.98;;;25.40;71.40;;;;;;5058303;28;20963;-83
2022/06/03 13:22:00;;;;;;;3.08;1.73;;;25.50;69.30;;;;;;5056598;28;20388;-88
2022/06/03 13:24:28;;;;;;;15.13;2.47;;;25.30;70.60;;;;;;5057306;28;20418;-84
2022/06/03 13:27:09;;;;;;;1.70;1.45;;;25.20;69.50;;;;;;5062339;28;20381;-86
2022/06/03 13:29:49;;;;;;;3.53;1.67;;;25.20;70.50;;;;;;5059106;28;20401;-84
2022/06/03 13:32:21;;;;;;;5.80;1.40;;;25.20;71.00;;;;;;5059973;28;20445;-84
2022/06/03 13:35:10;;;;;;;4.63;1.83;;;25.30;68.90;;;;;;5055157;28;21374;-83
2022/06/03 13:37:56;;;;;;;1.48;1.10;;;25.30;65.80;;;;;;5055945;28;20852;-83
2022/06/03 13:40:24;;;;;;;1.95;1.23;;;25.30;64.50;;;;;;5055975;28;20533;-83
2022/06/03 13:43:04;;;;;;;2.47;1.23;;;25.30;63.50;;;;;;5058767;28;20451;-85
2022/06/03 13:45:39;;;;;;;2.17;1.30;;;;;;;;;;5060333;28;20378;-84
2022/06/03 13:48:14;;;;;;;3.63;1.40;;;25.10;64.90;;;;;;5054014;28;20396;-85
2022/06/03 13:50:41;;;;;;;1.92;1.13;;;25.10;64.70;;;;;;5065049;28;20824;-83
2022/06/03 13:53:12;;;;;;;2.13;1.30;;;25.20;64.90;;;;;;5070767;28;20393;-83
2022/06/03 13:55:38;;;;;;;2.47;1.10;;;;;;;;;;5060701;28;20714;-84
2022/06/03 13:58:15;;;;;;;1.50;1.17;;;25.10;65.60;;;;;;5056650;28;20385;-82
2022/06/03 14:00:50;;;;;;;1.83;1.50;;;25.20;66.60;;;;;;5060388;28;20743;-85
2022/06/03 14:03:27;;;;;;;2.28;1.45;;;25.30;67.90;;;;;;5060338;28;20418;-85
2022/06/03 14:06:01;;;;;;;2.10;1.40;;;25.40;66.50;;;;;;5057944;28;20394;-84
2022/06/03 14:08:43;;;;;;;2.90;1.45;;;25.40;66.20;;;;;;5055274;28;20376;-82
2022/06/03 14:11:33;;;;;;;1.58;1.30;;;25.50;66.70;;;;;;5067106;28;20394;-87
2022/06/03 14:14:18;;;;;;;3.05;1.40;;;25.40;66.10;;;;;;5070536;28;20367;-86
2022/06/03 14:16:57;;;;;;;2.20;1.40;;;25.20;66.30;;;;;;5071593;28;20382;-84
2022/06/03 14:19:39;;;;;;;3.95;1.60;;;25.20;66.10;;;;;;5067334;28;20406;-84
2022/06/03 14:22:14;;;;;;;3.10;1.30;;;25.20;67.60;;;;;;5056130;28;20454;-83
2022/06/03 14:24:48;;;;;;;5.25;1.50;;;25.40;64.40;;;;;;5074325;28;20390;-84
2022/06/03 14:27:39;;;;;;;8.73;2.05;;;25.50;66.60;;;;;;5070171;28;20382;-83
2022/06/03 14:30:23;;;;;;;4.13;1.40;;;25.70;66.40;;;;;;5073207;28;20440;-87
2022/06/03 14:32:53;;;;;;;2.28;1.15;;;26.00;66.90;;;;;;5070472;28;20405;-83
2022/06/03 14:35:31;;;;;;;2.55;1.30;;;26.10;64.10;;;;;;5071513;28;20386;-82
2022/06/03 14:38:11;;;;;;;2.03;1.40;;;26.10;65.50;;;;;;5074853;28;20370;-83